createdAt,value
2023-01-08T00:00:57.368Z,100981.16
2023-01-08T00:03:50.331Z,100979.71
2023-01-08T00:06:25.304Z,100977.66
2023-01-08T00:08:58.567Z,100988.64
2023-01-08T00:11:32.131Z,100984.87
2023-01-08T00:14:07.115Z,100983.16
2023-01-08T00:16:40.061Z,100982.15
2023-01-08T00:19:14.152Z,100986.33
2023-01-08T00:21:46.760Z,100981.34
2023-01-08T00:24:20.923Z,100982.49
2023-01-08T00:26:53.882Z,100977.36
2023-01-08T00:29:30.048Z,100973.13
2023-01-08T00:32:02.859Z,100971.27
2023-01-08T00:34:35.504Z,100967.06
2023-01-08T00:37:08.196Z,100963.63
2023-01-08T00:39:40.913Z,100965.37
2023-01-08T00:42:13.880Z,100961.11
2023-01-08T00:44:48.974Z,100960.63
2023-01-08T00:47:21.628Z,100960.24
2023-01-08T00:49:54.331Z,100957.92
2023-01-08T00:52:27.067Z,100951.45
2023-01-08T00:55:10.034Z,100952.52
2023-01-08T00:57:43.661Z,100956.48
2023-01-08T01:00:17.999Z,100951.19
2023-01-08T01:02:50.838Z,100955.98
2023-01-08T01:05:28.746Z,100948.81
2023-01-08T01:08:01.421Z,100948.45
2023-01-08T01:10:42.550Z,100947.25
2023-01-08T01:13:15.491Z,100943.10
2023-01-08T01:15:57.676Z,100946.05
2023-01-08T01:18:33.473Z,100939.44
2023-01-08T01:21:13.462Z,100937.83
2023-01-08T01:23:46.298Z,100936.64
2023-01-08T01:26:21.217Z,100933.05
2023-01-08T01:28:55.925Z,100933.13
2023-01-08T01:31:31.144Z,100933.17
2023-01-08T01:34:03.825Z,100930.20
2023-01-08T01:36:36.567Z,100919.71
2023-01-08T01:39:09.734Z,100913.19
2023-01-08T01:41:44.995Z,100910.70
2023-01-08T01:44:42.743Z,100913.08
2023-01-08T01:47:24.833Z,100906.61
2023-01-08T01:50:03.658Z,100900.83
2023-01-08T01:52:41.943Z,100901.73
2023-01-08T01:55:17.325Z,100902.69
2023-01-08T01:57:54.315Z,100898.40
2023-01-08T02:00:29.160Z,100899.23
2023-01-08T02:03:03.399Z,100894.88
2023-01-08T02:05:45.424Z,100898.41
2023-01-08T02:08:24.902Z,100889.88
2023-01-08T02:11:08.380Z,100892.18
2023-01-08T02:13:47.923Z,100887.20
2023-01-08T02:16:28.806Z,100880.77
2023-01-08T02:19:15.651Z,100881.62
2023-01-08T02:22:02.860Z,100872.02
2023-01-08T02:24:49.190Z,100862.78
2023-01-08T02:27:28.728Z,100860.26
2023-01-08T02:30:01.530Z,100853.59
2023-01-08T02:32:40.728Z,100852.85
2023-01-08T02:35:14.276Z,100851.20
2023-01-08T02:37:49.735Z,100850.30
2023-01-08T02:40:34.991Z,100846.48
2023-01-08T02:43:16.629Z,100839.77
2023-01-08T02:45:52.164Z,100844.98
2023-01-08T02:48:35.334Z,100843.84
2023-01-08T02:51:13.516Z,100843.34
2023-01-08T02:53:50.457Z,100843.27
2023-01-08T02:56:25.847Z,100844.45
2023-01-08T02:58:59.861Z,100840.34
2023-01-08T03:01:35.732Z,100834.33
2023-01-08T03:04:15.101Z,100833.96
2023-01-08T03:06:48.026Z,100835.52
2023-01-08T03:09:21.424Z,100833.33
2023-01-08T03:11:59.899Z,100835.81
2023-01-08T03:14:39.483Z,100829.77
2023-01-08T03:17:20.177Z,100830.59
2023-01-08T03:19:57.544Z,100836.08
2023-01-08T03:22:32.664Z,100836.70
2023-01-08T03:25:10.931Z,100835.96
2023-01-08T03:27:56.286Z,100830.98
2023-01-08T03:30:30.684Z,100833.78
2023-01-08T03:33:07.246Z,100828.66
2023-01-08T03:35:42.195Z,100826.71
2023-01-08T03:38:22.051Z,100828.02
2023-01-08T03:40:58.918Z,100826.73
2023-01-08T03:43:31.668Z,100822.36
2023-01-08T03:46:09.226Z,100822.11
2023-01-08T03:48:42.467Z,100817.94
2023-01-08T03:54:17.852Z,100813.77
2023-01-08T03:56:53.067Z,100813.73
2023-01-08T03:59:26.203Z,100803.81
2023-01-08T04:02:31.824Z,100805.45
2023-01-08T04:05:05.417Z,100795.48
2023-01-08T04:07:38.525Z,100788.42
2023-01-08T04:10:11.953Z,100784.00
2023-01-08T04:12:50.160Z,100777.12
2023-01-08T04:15:24.225Z,100773.50
2023-01-08T04:17:58.018Z,100771.92
2023-01-08T04:20:31.316Z,100769.44
2023-01-08T04:23:04.053Z,100773.55
2023-01-08T04:25:38.449Z,100779.61
2023-01-08T04:28:13.714Z,100781.56
2023-01-08T04:30:46.595Z,100782.11
2023-01-08T04:47:13.484Z,100780.48
2023-01-08T04:49:46.217Z,100763.54
2023-01-08T04:52:19.079Z,100750.08
2023-01-08T04:54:51.951Z,100746.44
2023-01-08T04:57:24.780Z,100749.01
2023-01-08T04:59:57.617Z,100753.83
2023-01-08T05:02:30.807Z,100756.89
2023-01-08T05:05:03.927Z,100753.54
2023-01-08T05:07:41.382Z,100749.25
2023-01-08T05:10:14.522Z,100736.75
2023-01-08T05:12:47.214Z,100725.79
2023-01-08T05:15:20.001Z,100721.70
2023-01-08T05:17:58.822Z,100716.55
2023-01-08T05:20:33.416Z,100710.98
2023-01-08T05:23:06.095Z,100712.61
2023-01-08T05:25:39.563Z,100724.45
2023-01-08T05:28:12.274Z,100725.58
2023-01-08T05:30:44.918Z,100726.78
2023-01-08T05:33:18.008Z,100726.00
2023-01-08T05:35:53.021Z,100724.30
2023-01-08T05:38:26.459Z,100717.02
2023-01-08T05:40:59.088Z,100707.92
2023-01-08T05:43:32.094Z,100701.75
2023-01-08T05:46:06.184Z,100701.26
2023-01-08T05:48:39.266Z,100694.76
2023-01-08T05:51:12.203Z,100693.32
2023-01-08T05:53:45.232Z,100690.73
2023-01-08T05:56:17.904Z,100678.61
2023-01-08T05:58:50.876Z,100685.70
2023-01-08T06:01:24.047Z,100692.69
2023-01-08T06:03:59.135Z,100698.90
2023-01-08T06:06:36.419Z,100692.02
2023-01-08T06:09:09.282Z,100696.27
2023-01-08T06:11:42.259Z,100688.35
2023-01-08T06:14:18.421Z,100675.56
2023-01-08T06:16:53.264Z,100666.59
2023-01-08T06:19:27.369Z,100657.54
2023-01-08T06:22:00.167Z,100653.02
2023-01-08T06:24:33.144Z,100653.55
2023-01-08T06:27:06.182Z,100659.88
2023-01-08T06:29:38.835Z,100668.17
2023-01-08T06:32:12.590Z,100664.21
2023-01-08T06:34:45.383Z,100656.98
2023-01-08T06:37:18.405Z,100659.84
2023-01-08T06:39:51.086Z,100675.35
2023-01-08T06:42:26.261Z,100692.66
2023-01-08T06:44:59.112Z,100700.82
2023-01-08T06:47:31.818Z,100702.60
2023-01-08T06:50:04.779Z,100706.27
2023-01-08T06:52:37.548Z,100702.86
2023-01-08T06:55:11.889Z,100698.87
2023-01-08T06:57:44.807Z,100704.58
2023-01-08T07:00:18.978Z,100713.91
2023-01-08T07:02:52.750Z,100711.83
2023-01-08T07:05:26.183Z,100701.46
2023-01-08T07:08:04.299Z,100700.48
2023-01-08T07:10:38.845Z,100699.84
2023-01-08T07:13:12.870Z,100692.27
2023-01-08T07:15:48.035Z,100689.52
2023-01-08T07:18:20.841Z,100691.14
2023-01-08T07:20:53.526Z,100692.01
2023-01-08T07:23:26.322Z,100685.34
2023-01-08T07:26:00.970Z,100685.20
2023-01-08T07:28:34.179Z,100679.98
2023-01-08T07:31:10.124Z,100678.13
2023-01-08T07:33:42.830Z,100678.61
2023-01-08T07:36:15.946Z,100679.70
2023-01-08T07:38:48.646Z,100678.54
2023-01-08T07:41:21.946Z,100681.48
2023-01-08T07:43:54.940Z,100676.34
2023-01-08T07:46:27.567Z,100676.53
2023-01-08T07:49:00.482Z,100675.35
2023-01-08T07:51:33.301Z,100676.29
2023-01-08T07:54:06.573Z,100675.42
2023-01-08T07:56:50.023Z,100672.91
2023-01-08T07:59:25.313Z,100671.44
2023-01-08T08:01:58.729Z,100673.23
2023-01-08T08:04:31.606Z,100675.98
2023-01-08T08:07:04.452Z,100678.52
2023-01-08T08:09:37.158Z,100681.39
2023-01-08T08:12:10.751Z,100677.63
2023-01-08T08:14:43.578Z,100674.05
2023-01-08T08:17:16.233Z,100675.27
2023-01-08T08:19:49.005Z,100672.73
2023-01-08T08:22:21.610Z,100667.05
2023-01-08T08:24:55.103Z,100661.79
2023-01-08T08:27:27.902Z,100651.45
2023-01-08T08:30:01.766Z,100647.23
2023-01-08T08:32:35.069Z,100648.55
2023-01-08T08:35:09.293Z,100648.66
2023-01-08T08:37:42.157Z,100652.09
2023-01-08T08:40:15.483Z,100647.36
2023-01-08T08:42:48.242Z,100651.16
2023-01-08T08:45:21.310Z,100649.29
2023-01-08T08:47:54.123Z,100636.23
2023-01-08T08:50:27.001Z,100626.27
2023-01-08T08:53:03.509Z,100628.63
2023-01-08T08:55:36.713Z,100619.90
2023-01-08T08:58:12.040Z,100618.33
2023-01-08T09:00:45.527Z,100625.02
2023-01-08T09:03:18.713Z,100630.90
2023-01-08T09:05:51.548Z,100621.26
2023-01-08T09:08:24.298Z,100612.73
2023-01-08T09:10:57.030Z,100604.89
2023-01-08T09:13:29.821Z,100605.30
2023-01-08T09:16:03.391Z,100601.00
2023-01-08T09:18:36.268Z,100607.16
2023-01-08T09:21:09.906Z,100601.94
2023-01-08T09:23:42.593Z,100601.27
2023-01-08T09:26:17.690Z,100591.98
2023-01-08T09:28:50.470Z,100588.40
2023-01-08T09:31:23.230Z,100585.61
2023-01-08T09:34:00.310Z,100583.02
2023-01-08T09:36:33.814Z,100584.69
2023-01-08T09:39:17.259Z,100580.05
2023-01-08T09:42:05.702Z,100576.64
2023-01-08T09:44:41.731Z,100575.50
2023-01-08T09:47:25.390Z,100570.94
2023-01-08T09:50:04.471Z,100569.19
2023-01-08T09:52:38.725Z,100564.59
2023-01-08T09:55:17.310Z,100562.14
2023-01-08T09:57:50.676Z,100563.61
2023-01-08T10:00:28.341Z,100561.20
2023-01-08T10:03:01.934Z,100566.61
2023-01-08T10:05:37.513Z,100564.84
2023-01-08T10:08:15.195Z,100565.55
2023-01-08T10:10:48.276Z,100554.91
2023-01-08T10:13:21.242Z,100551.89
2023-01-08T10:15:57.531Z,100549.20
2023-01-08T10:18:32.129Z,100543.02
2023-01-08T10:21:05.707Z,100547.20
2023-01-08T10:23:40.505Z,100539.45
2023-01-08T10:26:13.167Z,100536.20
2023-01-08T10:28:45.819Z,100530.94
2023-01-08T10:31:19.952Z,100535.02
2023-01-08T10:33:53.229Z,100533.15
2023-01-08T10:36:27.730Z,100527.27
2023-01-08T10:39:03.403Z,100526.34
2023-01-08T10:41:40.927Z,100524.09
2023-01-08T10:44:19.589Z,100524.23
2023-01-08T10:46:55.076Z,100522.98
2023-01-08T10:49:33.801Z,100521.77
2023-01-08T10:52:24.406Z,100517.19
2023-01-08T10:55:01.693Z,100511.90
2023-01-08T10:57:35.015Z,100510.34
2023-01-08T11:00:22.024Z,100513.19
2023-01-08T11:02:55.461Z,100507.60
2023-01-08T11:05:35.795Z,100508.59
2023-01-08T11:08:14.770Z,100505.30
2023-01-08T11:10:56.454Z,100499.86
2023-01-08T11:13:35.900Z,100501.42
2023-01-08T11:16:11.727Z,100509.16
2023-01-08T11:18:50.209Z,100510.64
2023-01-08T11:21:26.267Z,100500.73
2023-01-08T11:24:13.429Z,100485.68
2023-01-08T11:26:53.331Z,100477.64
2023-01-08T11:29:33.116Z,100477.99
2023-01-08T11:35:21.931Z,100470.03
2023-01-08T11:37:59.511Z,100463.95
2023-01-08T11:40:44.250Z,100461.35
2023-01-08T11:43:26.496Z,100456.48
2023-01-08T11:46:31.965Z,100456.64
2023-01-08T11:49:24.855Z,100454.30
2023-01-08T11:52:22.692Z,100444.52
2023-01-08T11:55:16.075Z,100429.51
2023-01-08T11:58:01.722Z,100428.30
2023-01-08T12:00:48.269Z,100428.66
2023-01-08T12:03:31.989Z,100436.83
2023-01-08T12:06:16.190Z,100435.63
2023-01-08T12:08:58.197Z,100443.03
2023-01-08T12:11:32.684Z,100450.09
2023-01-08T12:14:21.012Z,100460.55
2023-01-08T12:17:23.465Z,100468.68
2023-01-08T12:20:13.271Z,100464.91
2023-01-08T12:22:55.624Z,100460.80
2023-01-08T12:26:11.176Z,100457.72
2023-01-08T12:29:05.397Z,100449.83
2023-01-08T12:32:10.567Z,100437.43
2023-01-08T12:34:55.489Z,100440.45
2023-01-08T12:37:35.126Z,100439.61
2023-01-08T12:40:15.857Z,100440.79
2023-01-08T12:42:59.994Z,100442.78
2023-01-08T12:45:46.705Z,100430.84
2023-01-08T12:48:22.684Z,100427.27
2023-01-08T12:51:03.092Z,100425.33
2023-01-08T12:53:50.691Z,100424.70
2023-01-08T12:56:32.059Z,100417.63
2023-01-08T12:59:18.712Z,100405.40
2023-01-08T13:02:16.877Z,100403.06
2023-01-08T13:04:50.822Z,100400.42
2023-01-08T13:07:31.413Z,100395.53
2023-01-08T13:10:07.529Z,100385.03
2023-01-08T13:12:43.843Z,100380.45
2023-01-08T13:15:25.889Z,100377.16
2023-01-08T13:18:01.839Z,100376.63
2023-01-08T13:20:43.304Z,100368.54
2023-01-08T13:23:30.481Z,100359.42
2023-01-08T13:26:07.828Z,100356.27
2023-01-08T13:28:56.857Z,100358.24
2023-01-08T13:31:42.365Z,100353.55
2023-01-08T13:34:42.387Z,100351.07
2023-01-08T13:37:29.163Z,100344.34
2023-01-08T13:43:50.025Z,100346.52
2023-01-08T13:46:54.985Z,100344.41
2023-01-08T13:49:51.472Z,100347.09
2023-01-08T13:52:44.336Z,100342.91
2023-01-08T13:55:21.517Z,100337.23
2023-01-08T13:57:57.299Z,100338.55
2023-01-08T14:00:39.560Z,100330.13
2023-01-08T14:03:25.222Z,100331.27
2023-01-08T14:06:08.987Z,100325.10
2023-01-08T14:09:11.252Z,100324.98
2023-01-08T14:11:48.500Z,100327.80
2023-01-08T14:14:50.318Z,100331.39
2023-01-08T14:17:30.729Z,100334.24
2023-01-08T14:20:05.597Z,100326.27
2023-01-08T14:22:42.418Z,100327.18
2023-01-08T14:25:21.372Z,100329.45
2023-01-08T14:28:03.168Z,100328.89
2023-01-08T14:30:37.976Z,100328.30
2023-01-08T14:33:16.565Z,100337.27
2023-01-08T14:35:51.367Z,100343.77
2023-01-08T14:38:24.133Z,100353.60
2023-01-08T14:41:15.793Z,100355.35
2023-01-08T14:43:50.978Z,100357.55
2023-01-08T14:46:27.694Z,100351.18
2023-01-08T14:49:01.749Z,100339.23
2023-01-08T14:51:35.163Z,100338.17
2023-01-08T14:54:10.377Z,100333.52
2023-01-08T14:56:45.780Z,100344.77
2023-01-08T14:59:33.300Z,100347.25
2023-01-08T15:02:20.293Z,100344.58
2023-01-08T15:05:04.920Z,100349.58
2023-01-08T15:07:38.167Z,100347.30
2023-01-08T15:10:33.410Z,100340.08
2023-01-08T15:13:08.651Z,100339.56
2023-01-08T15:15:57.876Z,100341.96
2023-01-08T15:18:30.624Z,100336.85
2023-01-08T15:21:04.004Z,100334.03
2023-01-08T15:23:42.297Z,100333.20
2023-01-08T15:26:16.856Z,100328.63
2023-01-08T15:28:53.189Z,100330.45
2023-01-08T15:31:31.946Z,100327.96
2023-01-08T15:34:06.059Z,100329.89
2023-01-08T15:36:39.159Z,100324.64
2023-01-08T15:39:12.039Z,100320.65
2023-01-08T15:42:02.203Z,100319.86
2023-01-08T15:44:37.651Z,100306.89
2023-01-08T15:47:10.987Z,100306.62
2023-01-08T15:49:43.612Z,100300.06
2023-01-08T15:52:19.011Z,100294.48
2023-01-08T15:54:55.676Z,100294.08
2023-01-08T15:57:31.709Z,100292.63
2023-01-08T16:00:05.074Z,100290.06
2023-01-08T16:02:47.066Z,100292.42
2023-01-08T16:05:23.019Z,100293.59
2023-01-08T16:07:55.678Z,100282.69
2023-01-08T16:10:29.192Z,100281.30
2023-01-08T16:13:02.800Z,100285.56
2023-01-08T16:15:35.639Z,100283.05
2023-01-08T16:18:08.515Z,100277.83
2023-01-08T16:20:41.429Z,100283.00
2023-01-08T16:23:14.559Z,100301.67
2023-01-08T16:25:47.555Z,100310.27
2023-01-08T16:28:21.126Z,100309.14
2023-01-08T16:30:54.848Z,100311.02
2023-01-08T16:33:27.619Z,100302.52
2023-01-08T16:36:01.803Z,100303.35
2023-01-08T16:38:36.504Z,100301.59
2023-01-08T16:41:09.839Z,100298.70
2023-01-08T16:43:45.362Z,100293.67
2023-01-08T16:46:19.100Z,100298.00
2023-01-08T16:48:51.831Z,100283.77
2023-01-08T16:51:27.969Z,100277.45
2023-01-08T16:54:01.111Z,100271.74
2023-01-08T16:56:34.119Z,100267.89
2023-01-08T16:59:18.270Z,100272.95
2023-01-08T17:01:55.724Z,100269.28
2023-01-08T17:04:29.750Z,100268.48
2023-01-08T17:07:10.751Z,100271.08
2023-01-08T17:09:44.527Z,100266.05
2023-01-08T17:12:22.573Z,100269.60
2023-01-08T17:14:55.378Z,100264.45
2023-01-08T17:17:28.405Z,100262.81
2023-01-08T17:20:01.338Z,100266.22
2023-01-08T17:22:35.071Z,100267.42
2023-01-08T17:25:11.629Z,100269.16
2023-01-08T17:27:45.093Z,100267.84
2023-01-08T17:30:19.280Z,100263.02
2023-01-08T17:32:54.799Z,100266.55
2023-01-08T17:35:27.838Z,100265.86
2023-01-08T17:38:00.641Z,100266.72
2023-01-08T17:40:34.504Z,100268.52
2023-01-08T17:43:08.049Z,100264.88
2023-01-08T17:45:42.449Z,100267.67
2023-01-08T17:48:15.480Z,100266.80
2023-01-08T17:50:48.533Z,100262.87
2023-01-08T17:53:21.648Z,100268.37
2023-01-08T17:55:54.966Z,100268.33
2023-01-08T17:58:27.840Z,100272.27
2023-01-08T18:01:00.781Z,100272.23
2023-01-08T18:03:33.943Z,100270.45
2023-01-08T18:06:11.754Z,100269.93
2023-01-08T18:08:45.479Z,100265.59
2023-01-08T18:11:18.531Z,100264.92
2023-01-08T18:13:56.004Z,100273.10
2023-01-08T18:16:29.601Z,100276.00
2023-01-08T18:19:03.686Z,100272.17
2023-01-08T18:21:36.860Z,100265.02
2023-01-08T18:24:10.829Z,100262.58
2023-01-08T18:26:44.826Z,100258.77
2023-01-08T18:29:17.886Z,100255.34
2023-01-08T18:31:52.660Z,100242.38
2023-01-08T18:34:26.134Z,100241.33
2023-01-08T18:37:01.579Z,100239.33
2023-01-08T18:39:34.608Z,100242.04
2023-01-08T18:42:25.151Z,100232.80
2023-01-08T18:44:58.899Z,100232.61
2023-01-08T18:47:31.626Z,100228.94
2023-01-08T18:50:04.875Z,100226.13
2023-01-08T18:52:39.254Z,100220.23
2023-01-08T18:55:14.268Z,100220.58
2023-01-08T18:57:49.141Z,100231.45
2023-01-08T19:00:23.585Z,100243.59
2023-01-08T19:02:57.280Z,100237.83
2023-01-08T19:05:30.536Z,100236.05
2023-01-08T19:08:03.251Z,100231.30
2023-01-08T19:10:45.300Z,100223.20
2023-01-08T19:13:20.517Z,100224.98
2023-01-08T19:15:53.302Z,100225.67
2023-01-08T19:18:26.092Z,100223.98
2023-01-08T19:21:00.091Z,100226.24
2023-01-08T19:23:33.424Z,100221.34
2023-01-08T19:26:21.289Z,100231.63
2023-01-08T19:28:55.192Z,100231.25
2023-01-08T19:31:31.603Z,100225.59
2023-01-08T19:34:05.537Z,100226.09
2023-01-08T19:36:43.557Z,100217.03
2023-01-08T19:39:16.986Z,100216.83
2023-01-08T19:42:07.196Z,100204.30
2023-01-08T19:44:40.250Z,100208.27
2023-01-08T19:47:13.601Z,100216.00
2023-01-08T19:49:49.073Z,100213.52
2023-01-08T19:52:35.329Z,100218.27
2023-01-08T19:55:14.162Z,100215.75
2023-01-08T19:57:47.958Z,100216.42
2023-01-08T20:00:22.447Z,100209.81
2023-01-08T20:06:00.116Z,100211.88
2023-01-08T20:08:46.810Z,100223.79
2023-01-08T20:11:20.620Z,100222.89
2023-01-08T20:13:55.609Z,100212.70
2023-01-08T20:16:29.776Z,100202.74
2023-01-08T20:19:04.808Z,100204.64
2023-01-08T20:21:38.956Z,100201.02
2023-01-08T20:24:17.649Z,100202.69
2023-01-08T20:26:50.459Z,100184.44
2023-01-08T20:29:23.768Z,100186.83
2023-01-08T20:31:59.565Z,100198.35
2023-01-08T20:34:32.410Z,100192.33
2023-01-08T20:37:07.612Z,100190.66
2023-01-08T20:39:40.648Z,100190.33
2023-01-08T20:42:17.702Z,100181.77
2023-01-08T20:45:00.231Z,100185.88
2023-01-08T20:47:35.233Z,100176.88
2023-01-08T20:50:19.467Z,100174.05
2023-01-08T20:52:53.077Z,100166.54
2023-01-08T20:55:25.880Z,100162.83
2023-01-08T20:57:58.581Z,100158.58
2023-01-08T21:00:31.518Z,100149.58
2023-01-08T21:03:04.183Z,100144.84
2023-01-08T21:05:40.066Z,100146.33
2023-01-08T21:08:15.239Z,100136.41
2023-01-08T21:10:57.252Z,100130.73
2023-01-08T21:13:30.203Z,100133.55
2023-01-08T21:16:09.875Z,100129.63
2023-01-08T21:18:44.133Z,100126.42
2023-01-08T21:21:39.993Z,100115.41
2023-01-08T21:24:15.692Z,100108.29
2023-01-08T21:26:48.834Z,100107.85
2023-01-08T21:29:23.346Z,100117.83
2023-01-08T21:31:57.548Z,100113.80
2023-01-08T21:35:00.816Z,100101.36
2023-01-08T21:37:39.391Z,100096.94
2023-01-08T21:40:23.113Z,100093.92
2023-01-08T21:43:14.032Z,100084.30
2023-01-08T21:45:51.965Z,100082.52
2023-01-08T21:48:25.169Z,100071.61
2023-01-08T21:50:58.243Z,100072.02
2023-01-08T21:53:36.295Z,100056.09
2023-01-08T21:56:09.982Z,100047.90
2023-01-08T21:58:42.816Z,100045.03
2023-01-08T22:01:15.993Z,100050.34
2023-01-08T22:03:49.312Z,100052.92
2023-01-08T22:06:22.433Z,100041.05
2023-01-08T22:08:57.036Z,100019.73
2023-01-08T22:11:30.291Z,100022.35
2023-01-08T22:14:03.166Z,100019.38
2023-01-08T22:16:36.466Z,100019.59
2023-01-08T22:19:11.086Z,100015.10
2023-01-08T22:21:43.850Z,100015.30
2023-01-08T22:24:16.886Z,100026.66
2023-01-08T22:26:50.435Z,100030.38
2023-01-08T22:29:23.404Z,100025.25
2023-01-08T22:31:56.424Z,100015.04
2023-01-08T22:34:31.656Z,100003.40
2023-01-08T22:37:05.209Z,100003.42
2023-01-08T22:39:38.653Z,99999.06
2023-01-08T22:42:11.471Z,100005.48
2023-01-08T22:44:44.312Z,100000.96
2023-01-08T22:47:17.249Z,99997.95
2023-01-08T22:49:50.660Z,99996.25
2023-01-08T22:52:23.610Z,100001.23
2023-01-08T22:54:58.225Z,99989.14
2023-01-08T22:57:31.296Z,99974.70
2023-01-08T23:00:05.841Z,99981.88
2023-01-08T23:02:39.032Z,99981.90
2023-01-08T23:05:13.796Z,99977.02
2023-01-08T23:07:46.763Z,99971.25
2023-01-08T23:10:20.230Z,99981.98
2023-01-08T23:12:53.934Z,99989.26
2023-01-08T23:15:35.161Z,99983.71
2023-01-08T23:18:08.463Z,99978.74
2023-01-08T23:20:41.453Z,99962.28
2023-01-08T23:23:15.172Z,99960.48
2023-01-08T23:25:49.533Z,99963.67
2023-01-08T23:28:23.674Z,99961.66
2023-01-08T23:30:57.386Z,99973.06
2023-01-08T23:33:30.296Z,99977.41
2023-01-08T23:36:03.474Z,99996.90
2023-01-08T23:38:39.209Z,100001.66
2023-01-08T23:41:15.515Z,99997.17
2023-01-08T23:43:49.364Z,99976.80
2023-01-08T23:46:22.415Z,99958.70
2023-01-08T23:48:55.641Z,99952.46
2023-01-08T23:51:31.249Z,99959.38
2023-01-08T23:54:09.518Z,99939.47
2023-01-08T23:56:43.850Z,99924.25
2023-01-08T23:59:17.087Z,99918.10
